sensor_id;sensor_type;location;lat;lon;timestamp;P1;durP1;ratioP1;P2;durP2;ratioP2
4001;SDS011;2015;48.670;9.060;2022-10-26T04:02:38;6.37;;;5.97;;
4001;SDS011;2015;48.670;9.060;2022-10-26T04:05:10;7.37;;;6.00;;
4001;SDS011;2015;48.670;9.060;2022-10-26T04:07:41;6.07;;;5.57;;
4001;SDS011;2015;48.670;9.060;2022-10-26T04:10:13;6.07;;;5.67;;
4001;SDS011;2015;48.670;9.060;2022-10-26T04:12:45;6.13;;;4.83;;
4001;SDS011;2015;48.670;9.060;2022-10-26T04:15:17;6.63;;;4.77;;
4001;SDS011;2015;48.670;9.060;2022-10-26T04:17:59;5.83;;;5.33;;
4001;SDS011;2015;48.670;9.060;2022-10-26T04:20:32;9.13;;;5.37;;
4001;SDS011;2015;48.670;9.060;2022-10-26T04:23:05;7.10;;;6.40;;
4001;SDS011;2015;48.670;9.060;2022-10-26T04:25:38;7.23;;;6.10;;
4001;SDS011;2015;48.670;9.060;2022-10-26T04:28:10;6.60;;;6.20;;
4001;SDS011;2015;48.670;9.060;2022-10-26T04:30:43;7.00;;;6.37;;
4001;SDS011;2015;48.670;9.060;2022-10-26T04:33:15;7.20;;;5.33;;
4001;SDS011;2015;48.670;9.060;2022-10-26T04:35:46;5.77;;;5.37;;
4001;SDS011;2015;48.670;9.060;2022-10-26T04:38:18;7.00;;;6.30;;
4001;SDS011;2015;48.670;9.060;2022-10-26T04:40:50;5.67;;;5.20;;
4001;SDS011;2015;48.670;9.060;2022-10-26T04:43:22;8.33;;;6.73;;
4001;SDS011;2015;48.670;9.060;2022-10-26T04:45:56;5.93;;;5.23;;
4001;SDS011;2015;48.670;9.060;2022-10-26T04:48:28;13.30;;;5.70;;
4001;SDS011;2015;48.670;9.060;2022-10-26T04:51:00;6.00;;;5.47;;
4001;SDS011;2015;48.670;9.060;2022-10-26T04:53:32;6.63;;;5.30;;
4001;SDS011;2015;48.670;9.060;2022-10-26T04:56:04;5.90;;;5.17;;
4001;SDS011;2015;48.670;9.060;2022-10-26T04:58:36;5.37;;;4.93;;
4001;SDS011;2015;48.670;9.060;2022-10-26T05:01:08;5.20;;;4.70;;
4001;SDS011;2015;48.670;9.060;2022-10-26T05:03:40;7.80;;;6.40;;
4001;SDS011;2015;48.670;9.060;2022-10-26T05:06:11;7.03;;;6.03;;
4001;SDS011;2015;48.670;9.060;2022-10-26T05:08:43;6.80;;;5.70;;
4001;SDS011;2015;48.670;9.060;2022-10-26T05:11:15;8.90;;;5.60;;
4001;SDS011;2015;48.670;9.060;2022-10-26T05:13:47;8.97;;;5.47;;
4001;SDS011;2015;48.670;9.060;2022-10-26T05:16:19;7.00;;;5.77;;
4001;SDS011;2015;48.670;9.060;2022-10-26T05:18:50;8.47;;;6.90;;
4001;SDS011;2015;48.670;9.060;2022-10-26T05:21:22;6.80;;;6.20;;
4001;SDS011;2015;48.670;9.060;2022-10-26T05:23:54;6.97;;;6.27;;
4001;SDS011;2015;48.670;9.060;2022-10-26T05:26:26;8.50;;;5.50;;
4001;SDS011;2015;48.670;9.060;2022-10-26T05:28:58;7.50;;;6.80;;
4001;SDS011;2015;48.670;9.060;2022-10-26T05:31:29;6.67;;;6.10;;
4001;SDS011;2015;48.670;9.060;2022-10-26T05:34:01;7.80;;;6.00;;
4001;SDS011;2015;48.670;9.060;2022-10-26T05:36:33;6.57;;;5.40;;
4001;SDS011;2015;48.670;9.060;2022-10-26T05:39:05;6.13;;;5.63;;
4001;SDS011;2015;48.670;9.060;2022-10-26T05:41:36;7.20;;;6.47;;
4001;SDS011;2015;48.670;9.060;2022-10-26T05:44:08;7.33;;;6.67;;
4001;SDS011;2015;48.670;9.060;2022-10-26T05:46:40;7.73;;;6.97;;
4001;SDS011;2015;48.670;9.060;2022-10-26T05:49:12;7.97;;;7.13;;
4001;SDS011;2015;48.670;9.060;2022-10-26T05:51:43;6.80;;;6.30;;
4001;SDS011;2015;48.670;9.060;2022-10-26T05:54:15;8.37;;;6.70;;
4001;SDS011;2015;48.670;9.060;2022-10-26T05:56:47;6.20;;;5.57;;
4001;SDS011;2015;48.670;9.060;2022-10-26T05:59:19;10.30;;;5.47;;
4001;SDS011;2015;48.670;9.060;2022-10-26T06:05:02;6.80;;;6.03;;
4001;SDS011;2015;48.670;9.060;2022-10-26T06:07:35;8.07;;;4.60;;
4001;SDS011;2015;48.670;9.060;2022-10-26T06:10:08;5.80;;;5.30;;
4001;SDS011;2015;48.670;9.060;2022-10-26T06:12:41;5.60;;;5.10;;
4001;SDS011;2015;48.670;9.060;2022-10-26T06:15:19;4.07;;;3.77;;
4001;SDS011;2015;48.670;9.060;2022-10-26T06:20:50;6.90;;;3.93;;
4001;SDS011;2015;48.670;9.060;2022-10-26T06:31:48;5.70;;;5.13;;
4001;SDS011;2015;48.670;9.060;2022-10-26T06:34:23;3.73;;;3.43;;
4001;SDS011;2015;48.670;9.060;2022-10-26T06:36:57;4.37;;;3.77;;
4001;SDS011;2015;48.670;9.060;2022-10-26T06:39:33;4.03;;;3.67;;
4001;SDS011;2015;48.670;9.060;2022-10-26T06:42:07;4.27;;;3.70;;
4001;SDS011;2015;48.670;9.060;2022-10-26T06:44:41;3.97;;;3.40;;
4001;SDS011;2015;48.670;9.060;2022-10-26T06:53:08;4.63;;;4.10;;
4001;SDS011;2015;48.670;9.060;2022-10-26T06:55:49;7.33;;;4.50;;
4001;SDS011;2015;48.670;9.060;2022-10-26T06:58:22;3.90;;;3.40;;
4001;SDS011;2015;48.670;9.060;2022-10-26T07:00:55;4.33;;;4.07;;
4001;SDS011;2015;48.670;9.060;2022-10-26T07:03:27;5.13;;;4.50;;
4001;SDS011;2015;48.670;9.060;2022-10-26T07:05:59;4.60;;;4.20;;
4001;SDS011;2015;48.670;9.060;2022-10-26T07:08:31;6.33;;;4.33;;
4001;SDS011;2015;48.670;9.060;2022-10-26T07:11:03;4.90;;;3.80;;
4001;SDS011;2015;48.670;9.060;2022-10-26T07:13:35;6.60;;;4.10;;
4001;SDS011;2015;48.670;9.060;2022-10-26T07:16:07;4.40;;;4.10;;
4001;SDS011;2015;48.670;9.060;2022-10-26T07:18:39;6.53;;;3.93;;
4001;SDS011;2015;48.670;9.060;2022-10-26T07:21:10;6.70;;;4.77;;
4001;SDS011;2015;48.670;9.060;2022-10-26T07:23:42;4.07;;;3.77;;
4001;SDS011;2015;48.670;9.060;2022-10-26T07:26:14;4.67;;;4.27;;
4001;SDS011;2015;48.670;9.060;2022-10-26T07:28:47;3.80;;;3.47;;
4001;SDS011;2015;48.670;9.060;2022-10-26T07:31:20;4.87;;;4.37;;
4001;SDS011;2015;48.670;9.060;2022-10-26T07:33:52;10.03;;;4.47;;
4001;SDS011;2015;48.670;9.060;2022-10-26T07:36:24;6.43;;;5.83;;
4001;SDS011;2015;48.670;9.060;2022-10-26T07:38:56;5.40;;;5.00;;
4001;SDS011;2015;48.670;9.060;2022-10-26T07:41:28;4.90;;;3.97;;
4001;SDS011;2015;48.670;9.060;2022-10-26T07:44:00;6.70;;;6.03;;
4001;SDS011;2015;48.670;9.060;2022-10-26T07:46:32;4.63;;;4.23;;
4001;SDS011;2015;48.670;9.060;2022-10-26T07:49:04;5.13;;;4.10;;
4001;SDS011;2015;48.670;9.060;2022-10-26T07:51:35;5.20;;;4.80;;
4001;SDS011;2015;48.670;9.060;2022-10-26T07:54:07;5.63;;;4.97;;
4001;SDS011;2015;48.670;9.060;2022-10-26T07:56:39;4.80;;;4.23;;
4001;SDS011;2015;48.670;9.060;2022-10-26T07:59:11;5.13;;;4.73;;
4001;SDS011;2015;48.670;9.060;2022-10-26T08:01:43;4.40;;;4.00;;
4001;SDS011;2015;48.670;9.060;2022-10-26T08:04:15;5.20;;;4.70;;
4001;SDS011;2015;48.670;9.060;2022-10-26T08:06:47;5.57;;;5.07;;
4001;SDS011;2015;48.670;9.060;2022-10-26T08:09:18;5.00;;;4.60;;
4001;SDS011;2015;48.670;9.060;2022-10-26T08:11:50;9.00;;;5.80;;
4001;SDS011;2015;48.670;9.060;2022-10-26T08:14:22;12.57;;;6.10;;
4001;SDS011;2015;48.670;9.060;2022-10-26T08:16:54;7.83;;;5.30;;
4001;SDS011;2015;48.670;9.060;2022-10-26T08:19:25;4.97;;;4.57;;
4001;SDS011;2015;48.670;9.060;2022-10-26T08:21:57;4.37;;;4.00;;
4001;SDS011;2015;48.670;9.060;2022-10-26T08:24:29;5.30;;;4.90;;
4001;SDS011;2015;48.670;9.060;2022-10-26T08:27:00;4.90;;;4.50;;
4001;SDS011;2015;48.670;9.060;2022-10-26T08:29:32;6.03;;;5.50;;
4001;SDS011;2015;48.670;9.060;2022-10-26T08:32:04;5.03;;;4.63;;
4001;SDS011;2015;48.670;9.060;2022-10-26T08:34:36;5.03;;;4.47;;
4001;SDS011;2015;48.670;9.060;2022-10-26T08:37:07;10.13;;;7.03;;
4001;SDS011;2015;48.670;9.060;2022-10-26T08:39:39;9.97;;;5.23;;
4001;SDS011;2015;48.670;9.060;2022-10-26T08:42:12;4.67;;;4.30;;
4001;SDS011;2015;48.670;9.060;2022-10-26T08:44:54;5.83;;;4.63;;
4001;SDS011;2015;48.670;9.060;2022-10-26T08:47:34;4.90;;;4.60;;
4001;SDS011;2015;48.670;9.060;2022-10-26T08:50:24;11.40;;;5.70;;
4001;SDS011;2015;48.670;9.060;2022-10-26T08:53:07;5.17;;;4.83;;
4001;SDS011;2015;48.670;9.060;2022-10-26T08:55:51;8.00;;;4.97;;
4001;SDS011;2015;48.670;9.060;2022-10-26T08:58:27;5.33;;;4.93;;
4001;SDS011;2015;48.670;9.060;2022-10-26T09:01:07;4.90;;;4.47;;
4001;SDS011;2015;48.670;9.060;2022-10-26T09:03:40;5.43;;;5.00;;
4001;SDS011;2015;48.670;9.060;2022-10-26T09:06:15;7.43;;;5.07;;
4001;SDS011;2015;48.670;9.060;2022-10-26T09:25:57;4.47;;;4.10;;
4001;SDS011;2015;48.670;9.060;2022-10-26T09:28:32;10.17;;;3.60;;
4001;SDS011;2015;48.670;9.060;2022-10-26T09:31:08;6.00;;;4.33;;
4001;SDS011;2015;48.670;9.060;2022-10-26T09:33:45;4.33;;;3.53;;
4001;SDS011;2015;48.670;9.060;2022-10-26T09:36:18;7.07;;;3.67;;
4001;SDS011;2015;48.670;9.060;2022-10-26T09:38:55;4.93;;;3.90;;
4001;SDS011;2015;48.670;9.060;2022-10-26T09:41:38;6.27;;;3.40;;
4001;SDS011;2015;48.670;9.060;2022-10-26T09:47:09;4.90;;;3.17;;
4001;SDS011;2015;48.670;9.060;2022-10-26T09:49:55;6.57;;;3.87;;
4001;SDS011;2015;48.670;9.060;2022-10-26T09:52:47;5.40;;;3.53;;
4001;SDS011;2015;48.670;9.060;2022-10-26T09:55:19;6.87;;;4.03;;
4001;SDS011;2015;48.670;9.060;2022-10-26T09:57:55;6.23;;;3.70;;
4001;SDS011;2015;48.670;9.060;2022-10-26T10:00:29;4.90;;;3.63;;
4001;SDS011;2015;48.670;9.060;2022-10-26T10:03:17;4.93;;;3.30;;
4001;SDS011;2015;48.670;9.060;2022-10-26T10:05:50;3.50;;;3.20;;
4001;SDS011;2015;48.670;9.060;2022-10-26T10:08:26;6.07;;;4.00;;
4001;SDS011;2015;48.670;9.060;2022-10-26T10:13:37;3.27;;;2.97;;
4001;SDS011;2015;48.670;9.060;2022-10-26T10:16:20;2.87;;;2.67;;
4001;SDS011;2015;48.670;9.060;2022-10-26T10:18:54;11.23;;;3.00;;
4001;SDS011;2015;48.670;9.060;2022-10-26T10:21:34;3.83;;;3.50;;
4001;SDS011;2015;48.670;9.060;2022-10-26T10:24:27;3.70;;;3.30;;
4001;SDS011;2015;48.670;9.060;2022-10-26T10:29:48;4.40;;;3.67;;
4001;SDS011;2015;48.670;9.060;2022-10-26T10:32:23;3.20;;;2.90;;
4001;SDS011;2015;48.670;9.060;2022-10-26T10:35:21;4.37;;;3.53;;
4001;SDS011;2015;48.670;9.060;2022-10-26T10:37:55;3.13;;;2.60;;
4001;SDS011;2015;48.670;9.060;2022-10-26T10:40:27;5.87;;;3.20;;
4001;SDS011;2015;48.670;9.060;2022-10-26T10:43:02;5.50;;;3.70;;
4001;SDS011;2015;48.670;9.060;2022-10-26T10:45:45;8.70;;;3.30;;
4001;SDS011;2015;48.670;9.060;2022-10-26T10:48:19;3.00;;;2.80;;
4001;SDS011;2015;48.670;9.060;2022-10-26T10:50:56;7.20;;;3.13;;
4001;SDS011;2015;48.670;9.060;2022-10-26T11:01:44;4.47;;;4.10;;
4001;SDS011;2015;48.670;9.060;2022-10-26T11:07:50;6.90;;;2.30;;
4001;SDS011;2015;48.670;9.060;2022-10-26T11:10:29;8.23;;;2.70;;
4001;SDS011;2015;48.670;9.060;2022-10-26T11:13:21;5.93;;;2.60;;
4001;SDS011;2015;48.670;9.060;2022-10-26T11:15:59;3.33;;;2.87;;
4001;SDS011;2015;48.670;9.060;2022-10-26T11:18:41;7.03;;;3.70;;
4001;SDS011;2015;48.670;9.060;2022-10-26T11:21:18;4.40;;;3.30;;
4001;SDS011;2015;48.670;9.060;2022-10-26T11:32:19;6.93;;;2.63;;
4001;SDS011;2015;48.670;9.060;2022-10-26T11:40:29;6.33;;;2.90;;
4001;SDS011;2015;48.670;9.060;2022-10-26T11:43:17;4.20;;;2.90;;
4001;SDS011;2015;48.670;9.060;2022-10-26T11:49:05;2.93;;;2.73;;
4001;SDS011;2015;48.670;9.060;2022-10-26T11:54:30;3.60;;;2.47;;
4001;SDS011;2015;48.670;9.060;2022-10-26T11:57:05;3.43;;;2.90;;
4001;SDS011;2015;48.670;9.060;2022-10-26T11:59:38;5.30;;;2.40;;
4001;SDS011;2015;48.670;9.060;2022-10-26T12:02:22;5.50;;;2.97;;
4001;SDS011;2015;48.670;9.060;2022-10-26T12:05:02;3.27;;;2.20;;
4001;SDS011;2015;48.670;9.060;2022-10-26T12:07:52;4.60;;;3.10;;
4001;SDS011;2015;48.670;9.060;2022-10-26T12:10:27;2.90;;;2.70;;
4001;SDS011;2015;48.670;9.060;2022-10-26T12:18:45;3.43;;;2.13;;
4001;SDS011;2015;48.670;9.060;2022-10-26T12:21:27;5.40;;;2.90;;
4001;SDS011;2015;48.670;9.060;2022-10-26T12:24:03;6.23;;;3.13;;
4001;SDS011;2015;48.670;9.060;2022-10-26T12:26:57;3.10;;;2.80;;
4001;SDS011;2015;48.670;9.060;2022-10-26T12:29:37;6.30;;;2.80;;
4001;SDS011;2015;48.670;9.060;2022-10-26T12:35:25;5.77;;;2.93;;
4001;SDS011;2015;48.670;9.060;2022-10-26T12:41:39;3.83;;;3.10;;
4001;SDS011;2015;48.670;9.060;2022-10-26T12:43:54;5.20;;;3.20;;
4001;SDS011;2015;48.670;9.060;2022-10-26T12:48:58;4.40;;;2.43;;
4001;SDS011;2015;48.670;9.060;2022-10-26T12:56:41;8.93;;;3.30;;
4001;SDS011;2015;48.670;9.060;2022-10-26T13:07:32;12.03;;;3.60;;
4001;SDS011;2015;48.670;9.060;2022-10-26T13:12:45;4.57;;;3.17;;
4001;SDS011;2015;48.670;9.060;2022-10-26T13:15:37;3.93;;;2.73;;
4001;SDS011;2015;48.670;9.060;2022-10-26T13:18:15;10.13;;;3.17;;
4001;SDS011;2015;48.670;9.060;2022-10-26T13:20:53;4.70;;;3.00;;
4001;SDS011;2015;48.670;9.060;2022-10-26T13:23:46;6.60;;;2.80;;
4001;SDS011;2015;48.670;9.060;2022-10-26T13:32:34;6.97;;;4.77;;
4001;SDS011;2015;48.670;9.060;2022-10-26T13:35:12;3.83;;;3.40;;
4001;SDS011;2015;48.670;9.060;2022-10-26T13:37:46;5.20;;;2.70;;
4001;SDS011;2015;48.670;9.060;2022-10-26T13:40:24;6.60;;;3.40;;
4001;SDS011;2015;48.670;9.060;2022-10-26T13:42:58;7.70;;;3.40;;
4001;SDS011;2015;48.670;9.060;2022-10-26T13:45:53;8.57;;;3.10;;
4001;SDS011;2015;48.670;9.060;2022-10-26T13:48:29;7.10;;;3.17;;
4001;SDS011;2015;48.670;9.060;2022-10-26T13:51:11;4.07;;;2.40;;
4001;SDS011;2015;48.670;9.060;2022-10-26T13:53:50;6.00;;;2.77;;
4001;SDS011;2015;48.670;9.060;2022-10-26T13:59:45;3.73;;;3.37;;
4001;SDS011;2015;48.670;9.060;2022-10-26T14:02:18;4.80;;;2.80;;
4001;SDS011;2015;48.670;9.060;2022-10-26T14:05:00;3.83;;;2.87;;
4001;SDS011;2015;48.670;9.060;2022-10-26T14:07:35;4.57;;;2.90;;
4001;SDS011;2015;48.670;9.060;2022-10-26T14:10:22;3.87;;;2.57;;
4001;SDS011;2015;48.670;9.060;2022-10-26T14:12:58;3.83;;;2.90;;
4001;SDS011;2015;48.670;9.060;2022-10-26T14:15:31;7.00;;;3.13;;
4001;SDS011;2015;48.670;9.060;2022-10-26T14:18:04;6.60;;;2.70;;
4001;SDS011;2015;48.670;9.060;2022-10-26T14:20:35;5.73;;;3.90;;
4001;SDS011;2015;48.670;9.060;2022-10-26T14:23:23;6.90;;;3.10;;
4001;SDS011;2015;48.670;9.060;2022-10-26T14:26:03;5.30;;;2.80;;
4001;SDS011;2015;48.670;9.060;2022-10-26T14:28:37;5.97;;;2.87;;
4001;SDS011;2015;48.670;9.060;2022-10-26T14:31:23;5.67;;;3.00;;
4001;SDS011;2015;48.670;9.060;2022-10-26T14:33:59;4.70;;;4.30;;
4001;SDS011;2015;48.670;9.060;2022-10-26T14:41:51;13.63;;;3.67;;
4001;SDS011;2015;48.670;9.060;2022-10-26T14:44:24;6.60;;;3.80;;
4001;SDS011;2015;48.670;9.060;2022-10-26T14:46:56;3.70;;;2.97;;
4001;SDS011;2015;48.670;9.060;2022-10-26T14:49:28;3.27;;;2.57;;
4001;SDS011;2015;48.670;9.060;2022-10-26T14:52:04;2.80;;;2.47;;
4001;SDS011;2015;48.670;9.060;2022-10-26T14:54:36;5.87;;;2.60;;
4001;SDS011;2015;48.670;9.060;2022-10-26T15:00:24;4.50;;;2.70;;
4001;SDS011;2015;48.670;9.060;2022-10-26T15:02:56;3.50;;;2.87;;
4001;SDS011;2015;48.670;9.060;2022-10-26T15:05:29;7.43;;;4.07;;
4001;SDS011;2015;48.670;9.060;2022-10-26T15:08:39;7.03;;;2.87;;
4001;SDS011;2015;48.670;9.060;2022-10-26T15:11:27;4.70;;;3.30;;
4001;SDS011;2015;48.670;9.060;2022-10-26T15:13:59;4.27;;;3.93;;
4001;SDS011;2015;48.670;9.060;2022-10-26T15:16:33;5.40;;;3.70;;
4001;SDS011;2015;48.670;9.060;2022-10-26T15:19:12;8.13;;;3.17;;
4001;SDS011;2015;48.670;9.060;2022-10-26T15:21:53;9.00;;;3.33;;
4001;SDS011;2015;48.670;9.060;2022-10-26T15:24:26;5.20;;;3.00;;
4001;SDS011;2015;48.670;9.060;2022-10-26T15:27:13;14.30;;;3.80;;
4001;SDS011;2015;48.670;9.060;2022-10-26T15:29:48;6.17;;;3.30;;
4001;SDS011;2015;48.670;9.060;2022-10-26T15:32:26;9.87;;;3.40;;
4001;SDS011;2015;48.670;9.060;2022-10-26T15:35:33;7.50;;;3.10;;
4001;SDS011;2015;48.670;9.060;2022-10-26T15:38:01;6.80;;;3.53;;
4001;SDS011;2015;48.670;9.060;2022-10-26T15:40:33;7.77;;;3.47;;
4001;SDS011;2015;48.670;9.060;2022-10-26T15:43:08;4.27;;;3.87;;
4001;SDS011;2015;48.670;9.060;2022-10-26T15:45:45;5.63;;;3.93;;
4001;SDS011;2015;48.670;9.060;2022-10-26T15:48:25;6.93;;;3.70;;
4001;SDS011;2015;48.670;9.060;2022-10-26T15:51:01;4.80;;;3.40;;
4001;SDS011;2015;48.670;9.060;2022-10-26T15:53:32;8.67;;;3.70;;
4001;SDS011;2015;48.670;9.060;2022-10-26T15:56:12;6.67;;;3.60;;
4001;SDS011;2015;48.670;9.060;2022-10-26T15:58:46;6.90;;;4.53;;
4001;SDS011;2015;48.670;9.060;2022-10-26T16:01:19;11.53;;;5.87;;
4001;SDS011;2015;48.670;9.060;2022-10-26T16:03:53;11.83;;;6.20;;
4001;SDS011;2015;48.670;9.060;2022-10-26T16:06:29;8.63;;;4.90;;
4001;SDS011;2015;48.670;9.060;2022-10-26T16:09:04;6.03;;;5.43;;
4001;SDS011;2015;48.670;9.060;2022-10-26T16:11:37;5.93;;;4.30;;
4001;SDS011;2015;48.670;9.060;2022-10-26T16:14:09;8.47;;;4.57;;
4001;SDS011;2015;48.670;9.060;2022-10-26T16:16:42;11.97;;;5.63;;
4001;SDS011;2015;48.670;9.060;2022-10-26T16:19:14;9.53;;;3.67;;
4001;SDS011;2015;48.670;9.060;2022-10-26T16:22:01;9.77;;;3.83;;
4001;SDS011;2015;48.670;9.060;2022-10-26T16:24:33;5.93;;;3.33;;
4001;SDS011;2015;48.670;9.060;2022-10-26T16:27:05;7.30;;;3.63;;
4001;SDS011;2015;48.670;9.060;2022-10-26T16:29:37;7.70;;;4.40;;
4001;SDS011;2015;48.670;9.060;2022-10-26T16:32:09;17.63;;;4.27;;
4001;SDS011;2015;48.670;9.060;2022-10-26T16:34:41;6.10;;;4.33;;
4001;SDS011;2015;48.670;9.060;2022-10-26T16:37:13;10.37;;;5.00;;
4001;SDS011;2015;48.670;9.060;2022-10-26T16:39:44;6.57;;;3.70;;
4001;SDS011;2015;48.670;9.060;2022-10-26T16:42:16;4.90;;;4.53;;
4001;SDS011;2015;48.670;9.060;2022-10-26T16:44:48;5.00;;;4.40;;
4001;SDS011;2015;48.670;9.060;2022-10-26T16:47:19;5.40;;;3.77;;
4001;SDS011;2015;48.670;9.060;2022-10-26T16:49:56;8.33;;;4.30;;
4001;SDS011;2015;48.670;9.060;2022-10-26T16:52:28;7.00;;;4.50;;
4001;SDS011;2015;48.670;9.060;2022-10-26T16:55:01;10.80;;;5.50;;
4001;SDS011;2015;48.670;9.060;2022-10-26T16:57:34;12.53;;;4.20;;
4001;SDS011;2015;48.670;9.060;2022-10-26T17:00:07;12.17;;;5.27;;
4001;SDS011;2015;48.670;9.060;2022-10-26T17:02:39;7.73;;;5.90;;
4001;SDS011;2015;48.670;9.060;2022-10-26T17:05:11;10.77;;;6.10;;
4001;SDS011;2015;48.670;9.060;2022-10-26T17:07:43;7.30;;;4.97;;
4001;SDS011;2015;48.670;9.060;2022-10-26T17:10:17;7.90;;;5.47;;
4001;SDS011;2015;48.670;9.060;2022-10-26T17:12:49;7.03;;;4.83;;
4001;SDS011;2015;48.670;9.060;2022-10-26T17:15:21;9.30;;;5.83;;
4001;SDS011;2015;48.670;9.060;2022-10-26T17:17:58;7.23;;;6.30;;
4001;SDS011;2015;48.670;9.060;2022-10-26T17:20:34;7.60;;;5.63;;
4001;SDS011;2015;48.670;9.060;2022-10-26T17:23:06;6.67;;;4.87;;
4001;SDS011;2015;48.670;9.060;2022-10-26T17:25:38;8.73;;;4.87;;
4001;SDS011;2015;48.670;9.060;2022-10-26T17:28:10;5.13;;;4.63;;
4001;SDS011;2015;48.670;9.060;2022-10-26T17:30:42;9.73;;;5.30;;
4001;SDS011;2015;48.670;9.060;2022-10-26T17:33:14;10.20;;;6.27;;
4001;SDS011;2015;48.670;9.060;2022-10-26T17:35:51;9.93;;;6.80;;
4001;SDS011;2015;48.670;9.060;2022-10-26T17:38:23;9.20;;;6.87;;
4001;SDS011;2015;48.670;9.060;2022-10-26T17:40:58;11.97;;;7.40;;
4001;SDS011;2015;48.670;9.060;2022-10-26T17:43:32;11.30;;;5.90;;
4001;SDS011;2015;48.670;9.060;2022-10-26T17:46:06;10.93;;;6.00;;
4001;SDS011;2015;48.670;9.060;2022-10-26T17:48:40;5.67;;;5.03;;
4001;SDS011;2015;48.670;9.060;2022-10-26T17:51:13;5.40;;;4.63;;
4001;SDS011;2015;48.670;9.060;2022-10-26T17:53:49;7.13;;;5.50;;
4001;SDS011;2015;48.670;9.060;2022-10-26T17:56:25;5.40;;;4.00;;
4001;SDS011;2015;48.670;9.060;2022-10-26T17:58:59;6.20;;;4.23;;
4001;SDS011;2015;48.670;9.060;2022-10-26T18:01:33;8.03;;;4.30;;
4001;SDS011;2015;48.670;9.060;2022-10-26T18:04:04;5.63;;;4.43;;
4001;SDS011;2015;48.670;9.060;2022-10-26T18:06:36;4.40;;;4.00;;
4001;SDS011;2015;48.670;9.060;2022-10-26T18:09:08;7.73;;;4.83;;
4001;SDS011;2015;48.670;9.060;2022-10-26T18:11:40;8.63;;;5.50;;
4001;SDS011;2015;48.670;9.060;2022-10-26T18:14:12;9.50;;;5.27;;
4001;SDS011;2015;48.670;9.060;2022-10-26T18:16:44;7.20;;;5.13;;
4001;SDS011;2015;48.670;9.060;2022-10-26T18:19:15;17.30;;;7.93;;
4001;SDS011;2015;48.670;9.060;2022-10-26T18:21:47;6.60;;;5.90;;
4001;SDS011;2015;48.670;9.060;2022-10-26T18:24:19;8.03;;;4.77;;
4001;SDS011;2015;48.670;9.060;2022-10-26T18:26:51;7.40;;;5.07;;
4001;SDS011;2015;48.670;9.060;2022-10-26T18:29:24;11.17;;;4.67;;
4001;SDS011;2015;48.670;9.060;2022-10-26T18:31:57;8.63;;;4.60;;
4001;SDS011;2015;48.670;9.060;2022-10-26T18:34:29;5.43;;;4.90;;
4001;SDS011;2015;48.670;9.060;2022-10-26T18:37:01;7.50;;;4.60;;
4001;SDS011;2015;48.670;9.060;2022-10-26T18:39:33;10.73;;;6.47;;
4001;SDS011;2015;48.670;9.060;2022-10-26T18:42:04;14.57;;;7.30;;
4001;SDS011;2015;48.670;9.060;2022-10-26T18:44:36;12.90;;;9.17;;
4001;SDS011;2015;48.670;9.060;2022-10-26T18:47:08;8.03;;;7.23;;
4001;SDS011;2015;48.670;9.060;2022-10-26T18:49:40;9.37;;;7.60;;
4001;SDS011;2015;48.670;9.060;2022-10-26T18:52:12;13.77;;;8.97;;
4001;SDS011;2015;48.670;9.060;2022-10-26T18:54:43;11.90;;;8.83;;
4001;SDS011;2015;48.670;9.060;2022-10-26T18:57:15;13.10;;;7.87;;
4001;SDS011;2015;48.670;9.060;2022-10-26T18:59:49;8.57;;;5.80;;
4001;SDS011;2015;48.670;9.060;2022-10-26T19:02:25;7.80;;;4.90;;
4001;SDS011;2015;48.670;9.060;2022-10-26T19:04:57;7.07;;;4.90;;
4001;SDS011;2015;48.670;9.060;2022-10-26T19:07:29;6.00;;;5.60;;
4001;SDS011;2015;48.670;9.060;2022-10-26T19:10:00;11.43;;;5.30;;
4001;SDS011;2015;48.670;9.060;2022-10-26T19:12:32;12.07;;;5.90;;
4001;SDS011;2015;48.670;9.060;2022-10-26T19:15:04;12.00;;;6.30;;
4001;SDS011;2015;48.670;9.060;2022-10-26T19:17:36;16.60;;;7.70;;
4001;SDS011;2015;48.670;9.060;2022-10-26T19:20:08;19.13;;;7.43;;
4001;SDS011;2015;48.670;9.060;2022-10-26T19:22:43;10.83;;;8.80;;
4001;SDS011;2015;48.670;9.060;2022-10-26T19:25:14;9.53;;;7.73;;
4001;SDS011;2015;48.670;9.060;2022-10-26T19:27:46;8.80;;;7.90;;
4001;SDS011;2015;48.670;9.060;2022-10-26T19:30:18;9.33;;;7.50;;
4001;SDS011;2015;48.670;9.060;2022-10-26T19:32:50;8.67;;;7.80;;
4001;SDS011;2015;48.670;9.060;2022-10-26T19:35:22;8.80;;;7.40;;
4001;SDS011;2015;48.670;9.060;2022-10-26T19:37:54;12.43;;;7.53;;
4001;SDS011;2015;48.670;9.060;2022-10-26T19:40:26;19.43;;;8.10;;
4001;SDS011;2015;48.670;9.060;2022-10-26T19:42:57;13.73;;;7.70;;
4001;SDS011;2015;48.670;9.060;2022-10-26T19:45:29;17.20;;;7.10;;
4001;SDS011;2015;48.670;9.060;2022-10-26T19:48:01;7.90;;;7.13;;
4001;SDS011;2015;48.670;9.060;2022-10-26T19:50:33;8.43;;;5.90;;
4001;SDS011;2015;48.670;9.060;2022-10-26T19:53:04;13.63;;;7.73;;
4001;SDS011;2015;48.670;9.060;2022-10-26T19:55:36;13.40;;;9.03;;
4001;SDS011;2015;48.670;9.060;2022-10-26T19:58:15;14.63;;;10.70;;
4001;SDS011;2015;48.670;9.060;2022-10-26T20:00:47;11.23;;;8.57;;
4001;SDS011;2015;48.670;9.060;2022-10-26T20:03:19;13.13;;;7.43;;
4001;SDS011;2015;48.670;9.060;2022-10-26T20:05:53;10.67;;;7.97;;
4001;SDS011;2015;48.670;9.060;2022-10-26T20:08:26;12.93;;;8.33;;
4001;SDS011;2015;48.670;9.060;2022-10-26T20:10:58;15.10;;;8.27;;
4001;SDS011;2015;48.670;9.060;2022-10-26T20:13:30;17.77;;;10.37;;
4001;SDS011;2015;48.670;9.060;2022-10-26T20:16:02;13.63;;;9.57;;
4001;SDS011;2015;48.670;9.060;2022-10-26T20:18:34;19.50;;;10.17;;
4001;SDS011;2015;48.670;9.060;2022-10-26T20:21:06;19.10;;;9.97;;
4001;SDS011;2015;48.670;9.060;2022-10-26T20:23:39;12.57;;;8.20;;
4001;SDS011;2015;48.670;9.060;2022-10-26T20:26:11;12.77;;;8.90;;
4001;SDS011;2015;48.670;9.060;2022-10-26T20:28:50;12.20;;;8.07;;
4001;SDS011;2015;48.670;9.060;2022-10-26T20:31:22;18.90;;;9.73;;
4001;SDS011;2015;48.670;9.060;2022-10-26T20:33:53;19.13;;;8.97;;
4001;SDS011;2015;48.670;9.060;2022-10-26T20:36:25;10.60;;;8.73;;
4001;SDS011;2015;48.670;9.060;2022-10-26T20:38:57;16.00;;;8.77;;
4001;SDS011;2015;48.670;9.060;2022-10-26T20:41:29;8.83;;;7.97;;
4001;SDS011;2015;48.670;9.060;2022-10-26T20:44:02;14.13;;;9.10;;
4001;SDS011;2015;48.670;9.060;2022-10-26T20:46:34;7.70;;;6.80;;
4001;SDS011;2015;48.670;9.060;2022-10-26T20:49:07;11.13;;;7.70;;
4001;SDS011;2015;48.670;9.060;2022-10-26T20:51:54;10.00;;;7.50;;
4001;SDS011;2015;48.670;9.060;2022-10-26T20:54:53;14.93;;;8.13;;
4001;SDS011;2015;48.670;9.060;2022-10-26T20:57:31;11.77;;;8.00;;
4001;SDS011;2015;48.670;9.060;2022-10-26T21:00:06;11.37;;;8.17;;
4001;SDS011;2015;48.670;9.060;2022-10-26T21:02:40;13.23;;;7.67;;
4001;SDS011;2015;48.670;9.060;2022-10-26T21:05:13;13.90;;;6.60;;
4001;SDS011;2015;48.670;9.060;2022-10-26T21:07:46;12.60;;;7.10;;
4001;SDS011;2015;48.670;9.060;2022-10-26T21:10:18;8.30;;;6.50;;
4001;SDS011;2015;48.670;9.060;2022-10-26T21:12:50;8.23;;;6.80;;
4001;SDS011;2015;48.670;9.060;2022-10-26T21:15:22;10.20;;;7.40;;
4001;SDS011;2015;48.670;9.060;2022-10-26T21:17:54;8.60;;;6.40;;
4001;SDS011;2015;48.670;9.060;2022-10-26T21:20:26;7.13;;;5.93;;
4001;SDS011;2015;48.670;9.060;2022-10-26T21:22:59;9.60;;;6.50;;
4001;SDS011;2015;48.670;9.060;2022-10-26T21:25:31;11.63;;;6.90;;
4001;SDS011;2015;48.670;9.060;2022-10-26T21:28:04;13.90;;;6.37;;
4001;SDS011;2015;48.670;9.060;2022-10-26T21:30:39;13.60;;;7.17;;
4001;SDS011;2015;48.670;9.060;2022-10-26T21:33:11;12.90;;;6.83;;
4001;SDS011;2015;48.670;9.060;2022-10-26T21:35:50;9.60;;;6.53;;
4001;SDS011;2015;48.670;9.060;2022-10-26T21:38:25;19.97;;;8.40;;
4001;SDS011;2015;48.670;9.060;2022-10-26T21:41:04;11.47;;;7.63;;
4001;SDS011;2015;48.670;9.060;2022-10-26T21:43:37;10.50;;;7.00;;
4001;SDS011;2015;48.670;9.060;2022-10-26T21:46:11;16.40;;;7.47;;
4001;SDS011;2015;48.670;9.060;2022-10-26T21:48:43;9.70;;;7.20;;
4001;SDS011;2015;48.670;9.060;2022-10-26T21:51:18;16.23;;;7.13;;
4001;SDS011;2015;48.670;9.060;2022-10-26T21:53:51;7.70;;;6.93;;
4001;SDS011;2015;48.670;9.060;2022-10-26T21:56:23;9.17;;;6.20;;
4001;SDS011;2015;48.670;9.060;2022-10-26T21:58:57;7.00;;;6.27;;
4001;SDS011;2015;48.670;9.060;2022-10-26T22:01:30;6.53;;;5.40;;
4001;SDS011;2015;48.670;9.060;2022-10-26T22:04:03;22.70;;;7.00;;
4001;SDS011;2015;48.670;9.060;2022-10-26T22:06:35;14.50;;;8.57;;